createdAt,value
2022-11-24T00:00:50.190Z,51.80
2022-11-24T00:03:32.611Z,51.50
2022-11-24T00:06:10.269Z,53.00
2022-11-24T00:08:44.540Z,61.50
2022-11-24T00:11:18.769Z,92.10
2022-11-24T00:13:51.639Z,58.60
2022-11-24T00:16:26.205Z,47.20
2022-11-24T00:19:00.114Z,49.70
2022-11-24T00:21:35.086Z,51.10
2022-11-24T00:24:07.838Z,58.30
2022-11-24T00:26:40.423Z,56.90
2022-11-24T00:29:14.251Z,53.00
2022-11-24T00:31:49.668Z,53.60
2022-11-24T00:34:21.843Z,52.90
2022-11-24T00:36:56.952Z,51.80
2022-11-24T00:39:30.711Z,57.90
2022-11-24T00:42:02.916Z,49.20
2022-11-24T00:44:35.300Z,55.00
2022-11-24T00:47:08.012Z,53.90
2022-11-24T00:49:42.988Z,49.50
2022-11-24T00:52:15.211Z,51.60
2022-11-24T00:54:47.361Z,55.90
2022-11-24T00:57:19.776Z,51.20
2022-11-24T00:59:52.133Z,51.30
2022-11-24T01:02:24.630Z,57.00
2022-11-24T01:04:57.464Z,52.20
2022-11-24T01:07:29.888Z,58.40
2022-11-24T01:10:02.087Z,88.50
2022-11-24T01:12:35.951Z,139.20
2022-11-24T01:15:09.852Z,157.00
2022-11-24T01:17:42.063Z,66.90
2022-11-24T01:20:14.784Z,52.20
2022-11-24T01:22:48.848Z,52.70
2022-11-24T01:25:21.096Z,57.20
2022-11-24T01:27:53.361Z,49.30
2022-11-24T01:30:25.514Z,55.60
2022-11-24T01:32:57.799Z,67.10
2022-11-24T01:35:30.000Z,102.10
2022-11-24T01:38:03.817Z,69.10
2022-11-24T01:40:35.874Z,53.00
2022-11-24T01:43:19.834Z,54.20
2022-11-24T01:45:52.226Z,71.30
2022-11-24T01:48:28.652Z,69.40
2022-11-24T01:51:09.628Z,60.20
2022-11-24T01:53:45.365Z,53.20
2022-11-24T01:56:17.843Z,55.30
2022-11-24T01:58:51.642Z,51.90
2022-11-24T02:01:24.251Z,50.60
2022-11-24T02:03:57.207Z,54.60
2022-11-24T02:06:31.489Z,47.90
2022-11-24T02:09:09.299Z,46.10
2022-11-24T02:11:42.929Z,45.70
2022-11-24T02:14:18.966Z,47.50
2022-11-24T02:16:54.189Z,53.90
2022-11-24T02:19:39.757Z,56.80
2022-11-24T02:22:20.476Z,63.50
2022-11-24T02:24:57.184Z,83.00
2022-11-24T02:27:29.341Z,63.80
2022-11-24T02:30:01.505Z,57.50
2022-11-24T02:32:34.994Z,61.60
2022-11-24T02:35:09.360Z,57.40
2022-11-24T02:37:41.617Z,77.80
2022-11-24T02:40:17.693Z,67.40
2022-11-24T02:42:50.055Z,54.40
2022-11-24T02:45:24.097Z,56.50
2022-11-24T02:47:56.296Z,56.80
2022-11-24T02:50:28.805Z,58.00
2022-11-24T02:53:01.555Z,69.30
2022-11-24T02:55:37.099Z,52.20
2022-11-24T02:58:09.288Z,49.00
2022-11-24T03:00:41.485Z,54.20
2022-11-24T03:03:14.212Z,54.60
2022-11-24T03:05:46.374Z,65.20
2022-11-24T03:08:19.198Z,68.00
2022-11-24T03:10:51.587Z,65.70
2022-11-24T03:13:23.782Z,64.80
2022-11-24T03:15:56.130Z,55.90
2022-11-24T03:18:28.351Z,57.00
2022-11-24T03:21:03.172Z,56.40
2022-11-24T03:23:38.572Z,57.40
2022-11-24T03:26:12.379Z,59.60
2022-11-24T03:28:44.850Z,49.10
2022-11-24T03:31:17.525Z,59.70
2022-11-24T03:33:49.759Z,60.00
2022-11-24T03:36:21.882Z,56.90
2022-11-24T03:38:54.064Z,56.00
2022-11-24T03:41:26.177Z,59.30
2022-11-24T03:43:58.357Z,62.10
2022-11-24T03:46:30.579Z,55.40
2022-11-24T03:49:02.935Z,57.30
2022-11-24T03:51:37.213Z,50.30
2022-11-24T03:54:10.086Z,64.40
2022-11-24T03:56:43.182Z,59.50
2022-11-24T03:59:15.443Z,52.00
2022-11-24T04:01:47.933Z,51.60
2022-11-24T04:04:20.315Z,57.80
2022-11-24T04:06:52.518Z,58.60
2022-11-24T04:09:25.420Z,52.10
2022-11-24T04:12:15.216Z,54.90
2022-11-24T04:14:48.454Z,54.50
2022-11-24T04:17:20.812Z,56.60
2022-11-24T04:19:53.071Z,46.90
2022-11-24T04:22:25.249Z,57.90
2022-11-24T04:24:57.490Z,60.60
2022-11-24T04:27:30.109Z,55.90
2022-11-24T04:30:02.359Z,61.00
2022-11-24T04:32:34.532Z,52.90
2022-11-24T04:35:07.466Z,63.40
2022-11-24T04:37:39.677Z,59.80
2022-11-24T04:40:13.330Z,60.60
2022-11-24T04:42:45.526Z,64.20
2022-11-24T04:45:19.854Z,60.80
2022-11-24T04:47:52.088Z,64.80
2022-11-24T04:50:24.325Z,59.10
2022-11-24T04:52:56.500Z,56.10
2022-11-24T04:55:28.738Z,59.70
2022-11-24T04:58:01.034Z,137.60
2022-11-24T05:00:33.135Z,113.00
2022-11-24T05:03:05.820Z,67.90
2022-11-24T05:05:38.040Z,67.80
2022-11-24T05:08:11.599Z,86.00
2022-11-24T05:10:43.790Z,64.90
2022-11-24T05:13:16.397Z,70.10
2022-11-24T05:15:48.761Z,65.50
2022-11-24T05:18:21.081Z,78.20
2022-11-24T05:20:53.359Z,64.50
2022-11-24T05:23:25.601Z,62.70
2022-11-24T05:26:02.489Z,64.70
2022-11-24T05:28:35.057Z,70.90
2022-11-24T05:31:07.348Z,83.40
2022-11-24T05:33:39.957Z,78.90
2022-11-24T05:36:33.282Z,73.10
2022-11-24T05:39:06.967Z,70.50
2022-11-24T05:41:39.059Z,75.10
2022-11-24T05:44:11.212Z,79.00
2022-11-24T05:46:43.440Z,76.00
2022-11-24T05:49:15.731Z,74.50
2022-11-24T05:51:47.968Z,75.90
2022-11-24T05:54:20.620Z,85.50
2022-11-24T05:56:53.204Z,85.80
2022-11-24T05:59:25.521Z,75.30
2022-11-24T06:01:57.865Z,76.00
2022-11-24T06:04:30.390Z,77.40
2022-11-24T06:07:05.347Z,68.80
2022-11-24T06:09:40.287Z,70.70
2022-11-24T06:12:13.551Z,75.80
2022-11-24T06:14:45.695Z,84.70
2022-11-24T06:17:21.062Z,70.20
2022-11-24T06:19:56.589Z,86.60
2022-11-24T06:22:29.603Z,65.90
2022-11-24T06:25:02.276Z,69.30
2022-11-24T06:27:37.342Z,69.90
2022-11-24T06:30:14.594Z,64.10
2022-11-24T06:32:49.750Z,74.20
2022-11-24T06:35:29.271Z,82.70
2022-11-24T06:38:01.660Z,79.30
2022-11-24T06:40:34.056Z,67.90
2022-11-24T06:43:06.230Z,82.50
2022-11-24T06:45:38.688Z,78.20
2022-11-24T06:48:13.394Z,83.20
2022-11-24T06:50:45.635Z,74.00
2022-11-24T06:53:18.097Z,70.00
2022-11-24T06:55:50.810Z,73.30
2022-11-24T06:58:23.033Z,74.90
2022-11-24T07:00:55.487Z,74.80
2022-11-24T07:03:28.261Z,78.60
2022-11-24T07:06:01.389Z,77.00
2022-11-24T07:08:33.779Z,78.80
2022-11-24T07:11:09.071Z,74.10
2022-11-24T07:13:41.402Z,74.60
2022-11-24T07:16:18.978Z,104.60
2022-11-24T07:18:55.358Z,75.90
2022-11-24T07:21:29.249Z,78.50
2022-11-24T07:24:01.461Z,69.10
2022-11-24T07:26:37.321Z,71.10
2022-11-24T07:29:12.777Z,62.10
2022-11-24T07:31:46.030Z,67.70
2022-11-24T07:34:18.341Z,79.00
2022-11-24T07:36:50.454Z,91.80
2022-11-24T07:39:22.636Z,116.80
2022-11-24T07:41:54.767Z,119.50
2022-11-24T07:44:26.903Z,105.80
2022-11-24T07:46:59.067Z,93.10
2022-11-24T07:49:31.250Z,157.50
2022-11-24T07:52:04.540Z,110.50
2022-11-24T07:54:36.941Z,89.40
2022-11-24T07:57:09.214Z,82.30
2022-11-24T07:59:41.354Z,85.90
2022-11-24T08:02:14.885Z,84.50
2022-11-24T08:04:47.121Z,77.90
2022-11-24T08:07:19.306Z,71.00
2022-11-24T08:09:52.286Z,63.60
2022-11-24T08:12:24.479Z,67.40
2022-11-24T08:14:56.727Z,66.10
2022-11-24T08:17:29.320Z,74.90
2022-11-24T08:20:03.762Z,68.40
2022-11-24T08:22:35.897Z,68.30
2022-11-24T08:25:09.712Z,74.00
2022-11-24T08:27:44.904Z,71.80
2022-11-24T08:30:17.922Z,79.60
2022-11-24T08:32:50.155Z,64.40
2022-11-24T08:35:22.382Z,63.10
2022-11-24T08:37:54.531Z,55.10
2022-11-24T08:40:26.669Z,59.20
2022-11-24T08:43:01.460Z,57.40
2022-11-24T08:45:38.253Z,51.60
2022-11-24T08:48:13.823Z,49.20
2022-11-24T08:50:46.198Z,86.90
2022-11-24T08:53:19.317Z,46.60
2022-11-24T08:55:51.641Z,62.60
2022-11-24T08:58:26.846Z,44.40
2022-11-24T09:01:06.836Z,44.90
2022-11-24T09:03:42.301Z,47.80
2022-11-24T09:06:20.217Z,49.10
2022-11-24T09:08:52.467Z,55.10
2022-11-24T09:11:27.018Z,43.10
2022-11-24T09:13:59.487Z,43.40
2022-11-24T09:16:32.126Z,46.20
2022-11-24T09:19:05.811Z,40.60
2022-11-24T09:21:39.148Z,52.20
2022-11-24T09:24:12.800Z,54.30
2022-11-24T09:26:47.776Z,55.00
2022-11-24T09:29:20.322Z,49.40
2022-11-24T09:31:52.722Z,67.50
2022-11-24T09:34:24.897Z,56.90
2022-11-24T09:36:58.855Z,54.70
2022-11-24T09:59:56.905Z,62.90
2022-11-24T10:06:59.891Z,37.00
2022-11-24T10:10:56.084Z,42.40
2022-11-24T10:31:59.819Z,50.80
2022-11-24T10:44:13.289Z,52.30
2022-11-24T10:51:56.004Z,43.40
2022-11-24T11:08:32.322Z,46.20
2022-11-24T11:46:32.737Z,41.50
2022-11-24T11:49:14.872Z,42.00
2022-11-24T11:52:02.277Z,40.30
2022-11-24T11:54:58.080Z,49.00
2022-11-24T11:57:38.456Z,46.10
2022-11-24T12:00:16.855Z,68.90
2022-11-24T12:03:13.479Z,52.20
2022-11-24T12:05:56.297Z,50.70
2022-11-24T12:09:11.720Z,47.60
2022-11-24T12:11:40.669Z,43.70
2022-11-24T12:14:25.858Z,51.50
2022-11-24T12:17:09.304Z,49.00
2022-11-24T12:19:53.140Z,54.50
2022-11-24T12:22:36.703Z,51.90
2022-11-24T12:29:24.217Z,53.20
2022-11-24T12:32:08.788Z,58.70
2022-11-24T12:34:53.365Z,47.30
2022-11-24T12:37:42.050Z,59.30
2022-11-24T12:40:24.597Z,58.10
2022-11-24T12:43:09.093Z,61.30
2022-11-24T12:45:51.256Z,52.20
2022-11-24T13:02:15.451Z,45.30
2022-11-24T13:09:44.570Z,50.70
2022-11-24T13:22:03.796Z,51.90
2022-11-24T13:38:14.558Z,62.40
2022-11-24T13:41:06.240Z,53.70
2022-11-24T13:45:18.356Z,55.80
2022-11-24T14:05:59.288Z,47.90
2022-11-24T14:17:28.162Z,74.50
2022-11-24T14:37:55.627Z,58.10
2022-11-24T14:50:11.627Z,79.90
2022-11-24T15:17:57.336Z,60.20
2022-11-24T15:28:38.675Z,61.80
2022-11-24T15:31:52.799Z,63.20
2022-11-24T15:34:34.213Z,65.20
2022-11-24T15:37:55.806Z,68.40
2022-11-24T15:40:35.363Z,80.50
2022-11-24T15:47:36.903Z,72.60
2022-11-24T16:03:48.687Z,106.90
2022-11-24T16:11:40.061Z,70.00
2022-11-24T16:14:12.313Z,71.30
2022-11-24T16:16:53.262Z,65.80
2022-11-24T16:21:17.624Z,82.10
2022-11-24T16:28:24.915Z,77.10
2022-11-24T16:30:57.110Z,98.10
2022-11-24T16:33:38.691Z,94.70
2022-11-24T16:36:59.495Z,87.40
2022-11-24T16:39:37.923Z,98.80
2022-11-24T16:42:10.302Z,93.10
2022-11-24T16:49:07.640Z,108.50
2022-11-24T16:51:40.053Z,107.10
2022-11-24T16:54:18.932Z,112.20
2022-11-24T16:56:51.169Z,102.90
2022-11-24T17:09:10.351Z,88.30
2022-11-24T17:11:49.068Z,92.10
2022-11-24T17:14:21.405Z,105.90
2022-11-24T17:17:00.400Z,129.80
2022-11-24T17:19:33.202Z,121.00
2022-11-24T17:22:12.957Z,126.60
2022-11-24T17:29:35.998Z,91.40
2022-11-24T17:37:19.033Z,82.70
2022-11-24T17:40:20.296Z,86.00
2022-11-24T17:43:40.048Z,80.40
2022-11-24T17:46:13.419Z,80.60
2022-11-24T17:48:52.218Z,93.90
2022-11-24T17:51:26.111Z,81.40
2022-11-24T17:54:31.200Z,85.20
2022-11-24T17:57:46.045Z,89.80
2022-11-24T18:00:20.203Z,85.70
2022-11-24T18:03:08.249Z,89.70
2022-11-24T18:10:15.182Z,108.10
2022-11-24T18:12:47.784Z,121.20
2022-11-24T18:19:30.130Z,108.40
2022-11-24T18:22:03.422Z,132.80
2022-11-24T18:29:08.180Z,410.50
2022-11-24T18:31:41.013Z,234.90
2022-11-24T18:34:20.078Z,168.20
2022-11-24T18:36:52.774Z,144.40
2022-11-24T18:39:32.062Z,158.40
2022-11-24T18:42:04.781Z,279.80
2022-11-24T18:44:45.417Z,122.40
2022-11-24T18:48:09.497Z,83.60
2022-11-24T18:55:53.828Z,137.20
2022-11-24T19:02:21.206Z,119.30
2022-11-24T19:04:53.983Z,105.90
2022-11-24T19:07:34.358Z,101.00
2022-11-24T19:10:08.188Z,111.30
2022-11-24T19:12:47.147Z,99.40
2022-11-24T19:15:19.542Z,107.10
2022-11-24T19:22:47.828Z,105.90
2022-11-24T19:25:20.278Z,90.20
2022-11-24T19:27:59.108Z,104.30
2022-11-24T19:30:31.398Z,102.10
2022-11-24T19:33:11.660Z,90.90
2022-11-24T19:40:37.061Z,86.90
2022-11-24T19:43:17.697Z,77.70
2022-11-24T19:48:27.234Z,76.80
2022-11-24T19:54:59.223Z,70.90
2022-11-24T20:06:37.551Z,91.80
2022-11-24T20:13:36.926Z,76.80
2022-11-24T20:24:48.652Z,71.10
2022-11-24T20:36:54.054Z,74.40
2022-11-24T20:39:28.925Z,76.10
2022-11-24T20:43:12.055Z,74.20
2022-11-24T20:50:51.445Z,76.50
2022-11-24T20:54:14.104Z,79.60
2022-11-24T20:56:47.518Z,89.60
2022-11-24T20:59:22.650Z,79.80
2022-11-24T21:01:57.171Z,78.00
2022-11-24T21:04:30.006Z,83.50
2022-11-24T21:07:03.793Z,74.10
2022-11-24T21:09:36.021Z,79.60
2022-11-24T21:12:09.070Z,92.60
2022-11-24T21:14:44.369Z,77.70
2022-11-24T21:17:17.459Z,79.90
2022-11-24T21:19:50.427Z,84.60
2022-11-24T21:22:22.561Z,89.10
2022-11-24T21:24:54.696Z,90.10
2022-11-24T21:27:28.781Z,91.90
2022-11-24T21:30:01.305Z,88.60
2022-11-24T21:32:33.523Z,91.50
2022-11-24T21:35:06.809Z,96.30
2022-11-24T21:37:38.936Z,101.40
2022-11-24T21:40:14.486Z,135.00
2022-11-24T21:42:46.892Z,97.70
2022-11-24T21:45:19.184Z,111.10
2022-11-24T21:47:51.390Z,106.10
2022-11-24T21:50:24.251Z,110.30
2022-11-24T21:53:00.641Z,123.40
2022-11-24T21:55:35.607Z,128.90
2022-11-24T21:58:09.791Z,151.30
2022-11-24T22:00:42.206Z,133.30
2022-11-24T22:03:14.442Z,138.60
2022-11-24T22:05:55.811Z,149.10
2022-11-24T22:08:29.951Z,132.90
2022-11-24T22:11:05.274Z,130.10
2022-11-24T22:13:39.437Z,144.30
2022-11-24T22:16:17.575Z,124.90
2022-11-24T22:18:51.796Z,129.80
2022-11-24T22:21:30.031Z,134.30
2022-11-24T22:24:02.419Z,145.20
2022-11-24T22:26:34.622Z,134.50
2022-11-24T22:29:07.780Z,148.60
2022-11-24T22:31:40.165Z,143.80
2022-11-24T22:34:12.421Z,140.10
2022-11-24T22:36:44.839Z,146.60
2022-11-24T22:39:17.080Z,133.50
2022-11-24T22:41:49.419Z,125.30
2022-11-24T22:44:21.596Z,134.50
2022-11-24T22:46:53.823Z,138.10
2022-11-24T22:49:26.719Z,154.30
2022-11-24T22:51:58.973Z,127.50
2022-11-24T22:54:31.356Z,137.70
2022-11-24T22:57:03.573Z,134.60
2022-11-24T22:59:35.748Z,155.30
2022-11-24T23:02:08.005Z,136.30
2022-11-24T23:04:40.091Z,139.20
2022-11-24T23:07:12.289Z,122.50
2022-11-24T23:09:47.642Z,118.20
2022-11-24T23:12:20.292Z,133.90
2022-11-24T23:14:52.494Z,118.00
2022-11-24T23:17:24.734Z,111.90
2022-11-24T23:19:56.853Z,120.70
2022-11-24T23:22:29.067Z,122.10
2022-11-24T23:25:01.115Z,104.80
2022-11-24T23:27:33.302Z,109.90
2022-11-24T23:30:05.916Z,115.10
2022-11-24T23:32:38.030Z,108.90
2022-11-24T23:35:13.992Z,109.90
2022-11-24T23:38:06.656Z,115.80
2022-11-24T23:40:38.853Z,104.30
2022-11-24T23:43:11.246Z,80.50
2022-11-24T23:45:43.426Z,94.70
2022-11-24T23:48:15.824Z,95.50
2022-11-24T23:50:48.057Z,93.90
2022-11-24T23:53:20.657Z,96.00
2022-11-24T23:55:56.783Z,84.50
2022-11-24T23:58:29.104Z,91.60
